Franklin Hills, Indiana
Current Conditions -  °F | °C
As of 12:35 PM on Sunday 21 Dec 2014 (Local Time) from KHNB Reporting Station
Clear Clear  
Wind Chill: 36°   Ceiling: Unl
Heat Index: 39°   Visibility: 9mi
Dew Point: 28°   Wind: 5mph
Humidity: 65%   Direction: 120°ESE
Pressure: 30.19"   Gusts: NA
Location:  38.0217°N, 86.7099°W
Report Text: KHNB 211835Z AUTO 12004KT 9SM CLR 04/M02 A3019 RMK AO1
Loading
Personal Weather Stations






























Interactive Weather Map New forecast layout! Learn more

10-Day Weather Forecast

Advertisements
Track Severe Weather on mobile